EFHK/HEL METAR and TAF weather

Enter ICAO airport designator
Station Type Date Time Source
EFHK METAR 2019/08/25 06:50 UTC NOAA

EFHK 250650Z 18006KT 140V220 CAVOK 17/13 Q1028 NOSIG


Station Type Date Time Source
EFHK Decoded METAR 2019/08/25 06:50 UTC NOAA

Station name not available
Aug 25, 2019 - 02:50 AM EDT / 2019.08.25 0650 UTC
Wind: from the S (180 degrees) at 7 MPH (6 KT) (direction variable):0
Visibility: greater than 7 mile(s):0
Temperature: 62 F (17 C)
Dew Point: 55 F (13 C)
Relative Humidity: 77%
Pressure (altimeter): 30.36 in. Hg (1028 hPa)
ob: EFHK 250650Z 18006KT 140V220 CAVOK 17/13 Q1028 NOSIG
cycle: 7

Station Type Date Time Source
EFHK TAF 2019/08/25 06:42 UTC NOAA

TAF TAF EFHK 250525Z 2506/2606 28002KT CAVOK
BECMG 2510/2512 22010KT

Example: see airport list